sensor_id;sensor_type;location;lat;lon;timestamp;P1;durP1;ratioP1;P2;durP2;ratioP2
73940;SDS011;62294;48.554;10.202;2024-01-30T00:00:47;14.55;;;8.20;;
73940;SDS011;62294;48.554;10.202;2024-01-30T00:03:13;16.02;;;7.63;;
73940;SDS011;62294;48.554;10.202;2024-01-30T00:05:40;16.30;;;8.45;;
73940;SDS011;62294;48.554;10.202;2024-01-30T00:08:07;15.48;;;7.60;;
73940;SDS011;62294;48.554;10.202;2024-01-30T00:10:34;16.67;;;8.07;;
73940;SDS011;62294;48.554;10.202;2024-01-30T00:13:00;17.38;;;8.18;;
73940;SDS011;62294;48.554;10.202;2024-01-30T00:15:27;18.08;;;8.98;;
73940;SDS011;62294;48.554;10.202;2024-01-30T00:17:54;14.27;;;7.15;;
73940;SDS011;62294;48.554;10.202;2024-01-30T00:20:21;13.57;;;8.00;;
73940;SDS011;62294;48.554;10.202;2024-01-30T00:22:47;13.45;;;7.90;;
73940;SDS011;62294;48.554;10.202;2024-01-30T00:25:14;15.32;;;8.00;;
73940;SDS011;62294;48.554;10.202;2024-01-30T00:27:41;15.02;;;8.65;;
73940;SDS011;62294;48.554;10.202;2024-01-30T00:30:08;14.27;;;8.73;;
73940;SDS011;62294;48.554;10.202;2024-01-30T00:32:35;15.32;;;8.07;;
73940;SDS011;62294;48.554;10.202;2024-01-30T00:35:02;16.55;;;8.50;;
73940;SDS011;62294;48.554;10.202;2024-01-30T00:37:29;14.98;;;8.40;;
73940;SDS011;62294;48.554;10.202;2024-01-30T00:39:56;10.68;;;6.20;;
73940;SDS011;62294;48.554;10.202;2024-01-30T00:42:23;15.07;;;7.25;;
73940;SDS011;62294;48.554;10.202;2024-01-30T00:44:50;14.55;;;8.13;;
73940;SDS011;62294;48.554;10.202;2024-01-30T00:47:17;12.70;;;6.50;;
73940;SDS011;62294;48.554;10.202;2024-01-30T00:49:43;14.65;;;7.47;;
73940;SDS011;62294;48.554;10.202;2024-01-30T00:52:10;15.57;;;9.07;;
73940;SDS011;62294;48.554;10.202;2024-01-30T00:54:38;17.35;;;7.63;;
73940;SDS011;62294;48.554;10.202;2024-01-30T00:57:04;16.88;;;8.10;;
73940;SDS011;62294;48.554;10.202;2024-01-30T00:59:31;15.48;;;7.97;;
73940;SDS011;62294;48.554;10.202;2024-01-30T01:01:58;14.50;;;7.72;;
73940;SDS011;62294;48.554;10.202;2024-01-30T01:04:24;17.85;;;9.55;;
73940;SDS011;62294;48.554;10.202;2024-01-30T01:06:53;13.73;;;7.65;;
73940;SDS011;62294;48.554;10.202;2024-01-30T01:09:19;19.58;;;8.98;;
73940;SDS011;62294;48.554;10.202;2024-01-30T01:11:46;13.32;;;8.05;;
73940;SDS011;62294;48.554;10.202;2024-01-30T01:14:12;13.50;;;6.40;;
73940;SDS011;62294;48.554;10.202;2024-01-30T01:16:39;17.70;;;9.23;;
73940;SDS011;62294;48.554;10.202;2024-01-30T01:19:05;15.70;;;8.57;;
73940;SDS011;62294;48.554;10.202;2024-01-30T01:21:32;14.68;;;7.18;;
73940;SDS011;62294;48.554;10.202;2024-01-30T01:23:59;11.18;;;5.97;;
73940;SDS011;62294;48.554;10.202;2024-01-30T01:26:25;20.05;;;8.55;;
73940;SDS011;62294;48.554;10.202;2024-01-30T01:28:52;14.55;;;7.32;;
73940;SDS011;62294;48.554;10.202;2024-01-30T01:31:18;15.25;;;7.82;;
73940;SDS011;62294;48.554;10.202;2024-01-30T01:33:45;14.43;;;7.65;;
73940;SDS011;62294;48.554;10.202;2024-01-30T01:36:13;14.68;;;7.45;;
73940;SDS011;62294;48.554;10.202;2024-01-30T01:38:39;14.40;;;8.30;;
73940;SDS011;62294;48.554;10.202;2024-01-30T01:41:06;13.45;;;7.30;;
73940;SDS011;62294;48.554;10.202;2024-01-30T01:43:33;12.52;;;7.20;;
73940;SDS011;62294;48.554;10.202;2024-01-30T01:45:59;12.32;;;7.43;;
73940;SDS011;62294;48.554;10.202;2024-01-30T01:48:27;12.65;;;7.78;;
73940;SDS011;62294;48.554;10.202;2024-01-30T01:50:54;11.63;;;7.13;;
73940;SDS011;62294;48.554;10.202;2024-01-30T01:53:21;13.65;;;7.43;;
73940;SDS011;62294;48.554;10.202;2024-01-30T01:55:48;16.02;;;8.05;;
73940;SDS011;62294;48.554;10.202;2024-01-30T01:58:14;18.85;;;7.75;;
73940;SDS011;62294;48.554;10.202;2024-01-30T02:00:42;11.80;;;6.60;;
73940;SDS011;62294;48.554;10.202;2024-01-30T02:03:10;14.55;;;7.95;;
73940;SDS011;62294;48.554;10.202;2024-01-30T02:05:38;15.18;;;7.85;;
73940;SDS011;62294;48.554;10.202;2024-01-30T02:08:06;14.18;;;7.90;;
73940;SDS011;62294;48.554;10.202;2024-01-30T02:10:33;16.83;;;8.35;;
73940;SDS011;62294;48.554;10.202;2024-01-30T02:13:00;15.30;;;7.93;;
73940;SDS011;62294;48.554;10.202;2024-01-30T02:15:27;13.38;;;8.00;;
73940;SDS011;62294;48.554;10.202;2024-01-30T02:17:55;15.90;;;7.63;;
73940;SDS011;62294;48.554;10.202;2024-01-30T02:20:22;14.65;;;8.43;;
73940;SDS011;62294;48.554;10.202;2024-01-30T02:22:52;13.20;;;6.68;;
73940;SDS011;62294;48.554;10.202;2024-01-30T02:25:29;13.20;;;7.68;;
73940;SDS011;62294;48.554;10.202;2024-01-30T02:27:56;20.27;;;9.32;;
73940;SDS011;62294;48.554;10.202;2024-01-30T02:30:23;14.25;;;7.75;;
73940;SDS011;62294;48.554;10.202;2024-01-30T02:32:49;10.30;;;6.10;;
73940;SDS011;62294;48.554;10.202;2024-01-30T02:35:16;15.57;;;8.07;;
73940;SDS011;62294;48.554;10.202;2024-01-30T02:37:43;13.43;;;7.70;;
73940;SDS011;62294;48.554;10.202;2024-01-30T02:40:09;15.38;;;8.18;;
73940;SDS011;62294;48.554;10.202;2024-01-30T02:42:36;17.75;;;8.07;;
73940;SDS011;62294;48.554;10.202;2024-01-30T02:45:02;18.45;;;8.98;;
73940;SDS011;62294;48.554;10.202;2024-01-30T02:47:29;17.65;;;9.15;;
73940;SDS011;62294;48.554;10.202;2024-01-30T02:49:56;18.80;;;9.23;;
73940;SDS011;62294;48.554;10.202;2024-01-30T02:52:22;15.85;;;8.75;;
73940;SDS011;62294;48.554;10.202;2024-01-30T02:54:50;15.27;;;7.95;;
73940;SDS011;62294;48.554;10.202;2024-01-30T02:57:16;16.00;;;8.02;;
73940;SDS011;62294;48.554;10.202;2024-01-30T02:59:43;23.20;;;9.27;;
73940;SDS011;62294;48.554;10.202;2024-01-30T03:02:09;15.68;;;7.63;;
73940;SDS011;62294;48.554;10.202;2024-01-30T03:04:36;14.10;;;8.63;;
73940;SDS011;62294;48.554;10.202;2024-01-30T03:07:02;14.80;;;8.38;;
73940;SDS011;62294;48.554;10.202;2024-01-30T03:09:29;19.17;;;9.63;;
73940;SDS011;62294;48.554;10.202;2024-01-30T03:11:56;17.40;;;9.15;;
73940;SDS011;62294;48.554;10.202;2024-01-30T03:14:22;12.90;;;6.82;;
73940;SDS011;62294;48.554;10.202;2024-01-30T03:16:49;18.33;;;10.23;;
73940;SDS011;62294;48.554;10.202;2024-01-30T03:19:15;12.95;;;7.80;;
73940;SDS011;62294;48.554;10.202;2024-01-30T03:21:42;19.38;;;9.40;;
73940;SDS011;62294;48.554;10.202;2024-01-30T03:24:09;16.38;;;8.55;;
73940;SDS011;62294;48.554;10.202;2024-01-30T03:26:35;13.15;;;8.23;;
73940;SDS011;62294;48.554;10.202;2024-01-30T03:29:02;15.13;;;8.52;;
73940;SDS011;62294;48.554;10.202;2024-01-30T03:31:28;12.70;;;7.85;;
73940;SDS011;62294;48.554;10.202;2024-01-30T03:33:55;15.93;;;8.60;;
73940;SDS011;62294;48.554;10.202;2024-01-30T03:36:22;15.35;;;8.07;;
73940;SDS011;62294;48.554;10.202;2024-01-30T03:38:48;17.63;;;7.95;;
73940;SDS011;62294;48.554;10.202;2024-01-30T03:41:14;12.32;;;7.38;;
73940;SDS011;62294;48.554;10.202;2024-01-30T03:43:41;16.90;;;6.90;;
73940;SDS011;62294;48.554;10.202;2024-01-30T03:46:08;14.73;;;7.30;;
73940;SDS011;62294;48.554;10.202;2024-01-30T03:48:34;18.13;;;9.00;;
73940;SDS011;62294;48.554;10.202;2024-01-30T03:51:01;15.20;;;8.05;;
73940;SDS011;62294;48.554;10.202;2024-01-30T03:53:27;18.83;;;8.73;;
73940;SDS011;62294;48.554;10.202;2024-01-30T03:55:54;14.63;;;7.50;;
73940;SDS011;62294;48.554;10.202;2024-01-30T03:58:21;18.85;;;8.63;;
73940;SDS011;62294;48.554;10.202;2024-01-30T04:00:48;11.73;;;6.80;;
73940;SDS011;62294;48.554;10.202;2024-01-30T04:03:15;12.60;;;7.35;;
73940;SDS011;62294;48.554;10.202;2024-01-30T04:05:42;12.98;;;7.60;;
73940;SDS011;62294;48.554;10.202;2024-01-30T04:08:09;17.33;;;7.72;;
73940;SDS011;62294;48.554;10.202;2024-01-30T04:10:36;16.23;;;8.68;;
73940;SDS011;62294;48.554;10.202;2024-01-30T04:13:02;15.18;;;7.50;;
73940;SDS011;62294;48.554;10.202;2024-01-30T04:15:29;12.90;;;7.28;;
73940;SDS011;62294;48.554;10.202;2024-01-30T04:17:58;15.45;;;7.43;;
73940;SDS011;62294;48.554;10.202;2024-01-30T04:20:25;15.95;;;7.05;;
73940;SDS011;62294;48.554;10.202;2024-01-30T04:22:52;19.23;;;7.63;;
73940;SDS011;62294;48.554;10.202;2024-01-30T04:25:19;16.20;;;8.05;;
73940;SDS011;62294;48.554;10.202;2024-01-30T04:27:46;15.00;;;8.10;;
73940;SDS011;62294;48.554;10.202;2024-01-30T04:30:13;12.20;;;5.88;;
73940;SDS011;62294;48.554;10.202;2024-01-30T04:32:39;15.60;;;7.57;;
73940;SDS011;62294;48.554;10.202;2024-01-30T04:35:06;11.55;;;6.68;;
73940;SDS011;62294;48.554;10.202;2024-01-30T04:37:37;14.05;;;6.88;;
73940;SDS011;62294;48.554;10.202;2024-01-30T04:40:03;15.63;;;7.38;;
73940;SDS011;62294;48.554;10.202;2024-01-30T04:42:31;11.02;;;7.20;;
73940;SDS011;62294;48.554;10.202;2024-01-30T04:44:58;13.40;;;7.25;;
73940;SDS011;62294;48.554;10.202;2024-01-30T04:47:25;9.60;;;5.07;;
73940;SDS011;62294;48.554;10.202;2024-01-30T04:49:51;11.50;;;6.25;;
73940;SDS011;62294;48.554;10.202;2024-01-30T04:52:18;12.48;;;7.13;;
73940;SDS011;62294;48.554;10.202;2024-01-30T04:54:45;12.43;;;7.07;;
73940;SDS011;62294;48.554;10.202;2024-01-30T04:57:11;11.40;;;5.63;;
73940;SDS011;62294;48.554;10.202;2024-01-30T04:59:39;12.23;;;6.93;;
73940;SDS011;62294;48.554;10.202;2024-01-30T05:02:05;14.98;;;7.63;;
73940;SDS011;62294;48.554;10.202;2024-01-30T05:04:33;13.98;;;7.40;;
73940;SDS011;62294;48.554;10.202;2024-01-30T05:07:00;11.52;;;6.18;;
73940;SDS011;62294;48.554;10.202;2024-01-30T05:09:26;13.40;;;6.60;;
73940;SDS011;62294;48.554;10.202;2024-01-30T05:11:53;10.35;;;6.40;;
73940;SDS011;62294;48.554;10.202;2024-01-30T05:14:20;12.60;;;6.43;;
73940;SDS011;62294;48.554;10.202;2024-01-30T05:16:46;9.45;;;4.82;;
73940;SDS011;62294;48.554;10.202;2024-01-30T05:19:13;8.73;;;5.32;;
73940;SDS011;62294;48.554;10.202;2024-01-30T05:21:41;10.80;;;5.68;;
73940;SDS011;62294;48.554;10.202;2024-01-30T05:24:07;13.05;;;6.57;;
73940;SDS011;62294;48.554;10.202;2024-01-30T05:26:36;13.85;;;6.78;;
73940;SDS011;62294;48.554;10.202;2024-01-30T05:29:03;12.05;;;6.20;;
73940;SDS011;62294;48.554;10.202;2024-01-30T05:31:29;11.30;;;6.38;;
73940;SDS011;62294;48.554;10.202;2024-01-30T05:33:56;10.95;;;6.68;;
73940;SDS011;62294;48.554;10.202;2024-01-30T05:36:23;9.18;;;5.65;;
73940;SDS011;62294;48.554;10.202;2024-01-30T05:38:49;17.63;;;8.38;;
73940;SDS011;62294;48.554;10.202;2024-01-30T05:41:16;14.55;;;7.32;;
73940;SDS011;62294;48.554;10.202;2024-01-30T05:43:42;10.02;;;6.25;;
73940;SDS011;62294;48.554;10.202;2024-01-30T05:46:09;13.85;;;7.68;;
73940;SDS011;62294;48.554;10.202;2024-01-30T05:48:35;16.20;;;7.38;;
73940;SDS011;62294;48.554;10.202;2024-01-30T05:51:02;11.63;;;6.15;;
73940;SDS011;62294;48.554;10.202;2024-01-30T05:53:30;12.52;;;7.70;;
73940;SDS011;62294;48.554;10.202;2024-01-30T05:55:57;18.05;;;7.85;;
73940;SDS011;62294;48.554;10.202;2024-01-30T05:58:23;13.40;;;7.25;;
73940;SDS011;62294;48.554;10.202;2024-01-30T06:00:50;11.82;;;6.97;;
73940;SDS011;62294;48.554;10.202;2024-01-30T06:03:16;13.98;;;6.65;;
73940;SDS011;62294;48.554;10.202;2024-01-30T06:05:43;15.68;;;6.88;;
73940;SDS011;62294;48.554;10.202;2024-01-30T06:08:10;14.23;;;7.50;;
73940;SDS011;62294;48.554;10.202;2024-01-30T06:10:36;18.80;;;7.68;;
73940;SDS011;62294;48.554;10.202;2024-01-30T06:13:03;11.13;;;6.90;;
73940;SDS011;62294;48.554;10.202;2024-01-30T06:15:30;12.60;;;6.10;;
73940;SDS011;62294;48.554;10.202;2024-01-30T06:17:56;17.25;;;8.07;;
73940;SDS011;62294;48.554;10.202;2024-01-30T06:20:23;13.68;;;6.25;;
73940;SDS011;62294;48.554;10.202;2024-01-30T06:22:49;11.35;;;5.75;;
73940;SDS011;62294;48.554;10.202;2024-01-30T06:25:19;12.57;;;7.07;;
73940;SDS011;62294;48.554;10.202;2024-01-30T06:27:46;15.93;;;7.30;;
73940;SDS011;62294;48.554;10.202;2024-01-30T06:30:13;10.68;;;6.57;;
73940;SDS011;62294;48.554;10.202;2024-01-30T06:32:39;12.80;;;6.85;;
73940;SDS011;62294;48.554;10.202;2024-01-30T06:35:06;15.02;;;7.35;;
73940;SDS011;62294;48.554;10.202;2024-01-30T06:37:33;11.88;;;6.20;;
73940;SDS011;62294;48.554;10.202;2024-01-30T06:40:00;15.13;;;7.32;;
73940;SDS011;62294;48.554;10.202;2024-01-30T06:42:26;10.38;;;6.25;;
73940;SDS011;62294;48.554;10.202;2024-01-30T06:44:53;15.32;;;7.25;;
73940;SDS011;62294;48.554;10.202;2024-01-30T06:47:20;11.57;;;6.72;;
73940;SDS011;62294;48.554;10.202;2024-01-30T06:49:46;10.77;;;6.55;;
73940;SDS011;62294;48.554;10.202;2024-01-30T06:52:13;16.70;;;7.65;;
73940;SDS011;62294;48.554;10.202;2024-01-30T06:54:40;11.20;;;7.05;;
73940;SDS011;62294;48.554;10.202;2024-01-30T06:57:07;16.23;;;7.82;;
73940;SDS011;62294;48.554;10.202;2024-01-30T06:59:38;14.15;;;7.32;;
73940;SDS011;62294;48.554;10.202;2024-01-30T07:02:09;13.75;;;6.82;;
73940;SDS011;62294;48.554;10.202;2024-01-30T07:04:36;14.00;;;6.82;;
73940;SDS011;62294;48.554;10.202;2024-01-30T07:07:05;11.35;;;6.63;;
73940;SDS011;62294;48.554;10.202;2024-01-30T07:09:32;14.10;;;7.03;;
73940;SDS011;62294;48.554;10.202;2024-01-30T07:11:58;10.50;;;6.32;;
73940;SDS011;62294;48.554;10.202;2024-01-30T07:14:25;15.57;;;7.35;;
73940;SDS011;62294;48.554;10.202;2024-01-30T07:16:51;13.30;;;6.18;;
73940;SDS011;62294;48.554;10.202;2024-01-30T07:19:18;12.30;;;6.65;;
73940;SDS011;62294;48.554;10.202;2024-01-30T07:21:44;14.70;;;8.52;;
73940;SDS011;62294;48.554;10.202;2024-01-30T07:24:12;14.27;;;7.95;;
73940;SDS011;62294;48.554;10.202;2024-01-30T07:26:38;15.65;;;8.35;;
73940;SDS011;62294;48.554;10.202;2024-01-30T07:29:05;10.65;;;6.85;;
73940;SDS011;62294;48.554;10.202;2024-01-30T07:31:31;17.80;;;8.82;;
73940;SDS011;62294;48.554;10.202;2024-01-30T07:33:59;14.60;;;7.70;;
73940;SDS011;62294;48.554;10.202;2024-01-30T07:36:26;16.88;;;9.18;;
73940;SDS011;62294;48.554;10.202;2024-01-30T07:38:53;16.45;;;9.02;;
73940;SDS011;62294;48.554;10.202;2024-01-30T07:41:20;13.50;;;7.10;;
73940;SDS011;62294;48.554;10.202;2024-01-30T07:43:47;17.73;;;8.90;;
73940;SDS011;62294;48.554;10.202;2024-01-30T07:46:14;20.38;;;9.48;;
73940;SDS011;62294;48.554;10.202;2024-01-30T07:48:40;17.42;;;8.65;;
73940;SDS011;62294;48.554;10.202;2024-01-30T07:51:07;17.55;;;9.27;;
73940;SDS011;62294;48.554;10.202;2024-01-30T07:53:33;19.38;;;10.18;;
73940;SDS011;62294;48.554;10.202;2024-01-30T07:56:00;19.70;;;11.50;;
73940;SDS011;62294;48.554;10.202;2024-01-30T07:58:26;23.15;;;12.60;;
73940;SDS011;62294;48.554;10.202;2024-01-30T08:00:56;20.95;;;12.07;;
73940;SDS011;62294;48.554;10.202;2024-01-30T08:03:25;24.48;;;11.25;;
73940;SDS011;62294;48.554;10.202;2024-01-30T08:05:51;29.20;;;13.32;;
73940;SDS011;62294;48.554;10.202;2024-01-30T08:08:18;22.38;;;11.68;;
73940;SDS011;62294;48.554;10.202;2024-01-30T08:10:44;23.20;;;12.75;;
73940;SDS011;62294;48.554;10.202;2024-01-30T08:13:11;23.60;;;12.75;;
73940;SDS011;62294;48.554;10.202;2024-01-30T08:15:38;24.60;;;13.20;;
73940;SDS011;62294;48.554;10.202;2024-01-30T08:18:04;33.65;;;17.35;;
73940;SDS011;62294;48.554;10.202;2024-01-30T08:20:33;32.03;;;16.80;;
73940;SDS011;62294;48.554;10.202;2024-01-30T08:22:59;35.50;;;19.00;;
73940;SDS011;62294;48.554;10.202;2024-01-30T08:25:27;26.77;;;15.00;;
73940;SDS011;62294;48.554;10.202;2024-01-30T08:27:53;37.60;;;21.02;;
73940;SDS011;62294;48.554;10.202;2024-01-30T08:30:20;44.38;;;21.73;;
73940;SDS011;62294;48.554;10.202;2024-01-30T08:32:47;42.80;;;20.85;;
73940;SDS011;62294;48.554;10.202;2024-01-30T08:35:13;45.10;;;22.60;;
73940;SDS011;62294;48.554;10.202;2024-01-30T08:37:42;45.47;;;21.15;;
73940;SDS011;62294;48.554;10.202;2024-01-30T08:40:09;43.25;;;20.77;;
73940;SDS011;62294;48.554;10.202;2024-01-30T08:42:36;49.55;;;24.25;;
73940;SDS011;62294;48.554;10.202;2024-01-30T08:45:03;44.30;;;20.40;;
73940;SDS011;62294;48.554;10.202;2024-01-30T08:47:31;32.17;;;17.23;;
73940;SDS011;62294;48.554;10.202;2024-01-30T08:49:57;30.65;;;16.30;;
73940;SDS011;62294;48.554;10.202;2024-01-30T08:52:24;26.05;;;14.43;;
73940;SDS011;62294;48.554;10.202;2024-01-30T08:54:51;28.63;;;14.93;;
73940;SDS011;62294;48.554;10.202;2024-01-30T08:57:17;23.95;;;15.68;;
73940;SDS011;62294;48.554;10.202;2024-01-30T08:59:44;28.42;;;13.85;;
73940;SDS011;62294;48.554;10.202;2024-01-30T09:02:13;28.08;;;15.98;;
73940;SDS011;62294;48.554;10.202;2024-01-30T09:04:42;27.60;;;14.88;;
73940;SDS011;62294;48.554;10.202;2024-01-30T09:07:09;30.92;;;16.52;;
73940;SDS011;62294;48.554;10.202;2024-01-30T09:09:37;30.25;;;14.95;;
73940;SDS011;62294;48.554;10.202;2024-01-30T09:12:06;32.08;;;17.65;;
73940;SDS011;62294;48.554;10.202;2024-01-30T09:14:35;22.38;;;12.90;;
73940;SDS011;62294;48.554;10.202;2024-01-30T09:17:03;24.95;;;14.32;;
73940;SDS011;62294;48.554;10.202;2024-01-30T09:19:30;33.22;;;15.18;;
73940;SDS011;62294;48.554;10.202;2024-01-30T09:21:57;31.92;;;16.17;;
73940;SDS011;62294;48.554;10.202;2024-01-30T09:24:24;31.33;;;19.80;;
73940;SDS011;62294;48.554;10.202;2024-01-30T09:26:51;30.05;;;18.25;;
73940;SDS011;62294;48.554;10.202;2024-01-30T09:29:18;35.45;;;16.23;;
73940;SDS011;62294;48.554;10.202;2024-01-30T09:31:45;37.30;;;19.23;;
73940;SDS011;62294;48.554;10.202;2024-01-30T09:34:12;33.33;;;18.48;;
73940;SDS011;62294;48.554;10.202;2024-01-30T09:36:39;23.33;;;13.75;;
73940;SDS011;62294;48.554;10.202;2024-01-30T09:39:06;37.40;;;16.42;;
73940;SDS011;62294;48.554;10.202;2024-01-30T09:41:33;28.27;;;14.35;;
73940;SDS011;62294;48.554;10.202;2024-01-30T09:44:06;26.13;;;15.35;;
73940;SDS011;62294;48.554;10.202;2024-01-30T09:46:35;28.38;;;13.88;;
73940;SDS011;62294;48.554;10.202;2024-01-30T09:49:02;28.17;;;14.13;;
73940;SDS011;62294;48.554;10.202;2024-01-30T09:51:29;29.80;;;14.32;;
73940;SDS011;62294;48.554;10.202;2024-01-30T09:53:56;25.13;;;13.63;;
73940;SDS011;62294;48.554;10.202;2024-01-30T09:56:23;25.38;;;11.40;;
73940;SDS011;62294;48.554;10.202;2024-01-30T09:58:49;24.45;;;12.57;;
73940;SDS011;62294;48.554;10.202;2024-01-30T10:01:16;29.25;;;13.05;;
73940;SDS011;62294;48.554;10.202;2024-01-30T10:03:45;26.92;;;13.40;;
73940;SDS011;62294;48.554;10.202;2024-01-30T10:06:12;23.10;;;11.60;;
73940;SDS011;62294;48.554;10.202;2024-01-30T10:08:39;28.20;;;12.32;;
73940;SDS011;62294;48.554;10.202;2024-01-30T10:11:06;23.88;;;11.77;;
73940;SDS011;62294;48.554;10.202;2024-01-30T10:13:33;20.85;;;9.45;;
73940;SDS011;62294;48.554;10.202;2024-01-30T10:16:00;17.45;;;11.27;;
73940;SDS011;62294;48.554;10.202;2024-01-30T10:18:28;15.48;;;9.15;;
73940;SDS011;62294;48.554;10.202;2024-01-30T10:20:55;19.88;;;9.88;;
73940;SDS011;62294;48.554;10.202;2024-01-30T10:23:21;17.88;;;9.15;;
73940;SDS011;62294;48.554;10.202;2024-01-30T10:25:48;19.15;;;10.02;;
73940;SDS011;62294;48.554;10.202;2024-01-30T10:30:42;22.58;;;9.73;;
73940;SDS011;62294;48.554;10.202;2024-01-30T10:33:09;20.95;;;11.73;;
73940;SDS011;62294;48.554;10.202;2024-01-30T10:35:36;17.60;;;9.77;;
73940;SDS011;62294;48.554;10.202;2024-01-30T10:38:02;16.83;;;8.35;;
73940;SDS011;62294;48.554;10.202;2024-01-30T10:40:32;18.02;;;10.85;;
73940;SDS011;62294;48.554;10.202;2024-01-30T10:43:00;22.60;;;11.90;;
73940;SDS011;62294;48.554;10.202;2024-01-30T10:45:30;23.23;;;10.75;;
73940;SDS011;62294;48.554;10.202;2024-01-30T10:47:59;14.43;;;7.25;;
73940;SDS011;62294;48.554;10.202;2024-01-30T10:50:27;16.55;;;9.30;;
73940;SDS011;62294;48.554;10.202;2024-01-30T10:52:57;19.40;;;10.48;;
73940;SDS011;62294;48.554;10.202;2024-01-30T10:55:25;21.02;;;10.48;;
73940;SDS011;62294;48.554;10.202;2024-01-30T10:57:54;20.67;;;10.85;;
73940;SDS011;62294;48.554;10.202;2024-01-30T11:00:21;19.48;;;9.95;;
73940;SDS011;62294;48.554;10.202;2024-01-30T11:02:50;19.98;;;11.27;;
73940;SDS011;62294;48.554;10.202;2024-01-30T11:05:24;16.48;;;10.10;;
73940;SDS011;62294;48.554;10.202;2024-01-30T11:07:59;16.30;;;8.35;;
73940;SDS011;62294;48.554;10.202;2024-01-30T11:10:25;19.05;;;8.88;;
73940;SDS011;62294;48.554;10.202;2024-01-30T11:12:52;19.27;;;9.80;;
73940;SDS011;62294;48.554;10.202;2024-01-30T11:15:19;19.48;;;10.25;;
73940;SDS011;62294;48.554;10.202;2024-01-30T11:22:45;16.73;;;9.88;;
73940;SDS011;62294;48.554;10.202;2024-01-30T11:25:13;17.77;;;9.45;;
73940;SDS011;62294;48.554;10.202;2024-01-30T11:27:41;15.25;;;8.40;;
73940;SDS011;62294;48.554;10.202;2024-01-30T11:30:08;15.70;;;9.70;;
73940;SDS011;62294;48.554;10.202;2024-01-30T11:32:35;20.67;;;10.73;;
73940;SDS011;62294;48.554;10.202;2024-01-30T11:35:05;17.25;;;9.77;;
73940;SDS011;62294;48.554;10.202;2024-01-30T11:37:37;18.90;;;9.63;;
73940;SDS011;62294;48.554;10.202;2024-01-30T11:40:07;17.65;;;9.93;;
73940;SDS011;62294;48.554;10.202;2024-01-30T11:42:35;19.50;;;10.02;;
73940;SDS011;62294;48.554;10.202;2024-01-30T11:45:05;20.38;;;10.45;;
73940;SDS011;62294;48.554;10.202;2024-01-30T11:47:34;21.08;;;10.00;;
73940;SDS011;62294;48.554;10.202;2024-01-30T11:50:03;20.20;;;10.13;;
73940;SDS011;62294;48.554;10.202;2024-01-30T11:52:35;14.65;;;7.93;;
73940;SDS011;62294;48.554;10.202;2024-01-30T11:55:02;13.27;;;8.93;;
73940;SDS011;62294;48.554;10.202;2024-01-30T11:57:30;19.33;;;10.32;;
73940;SDS011;62294;48.554;10.202;2024-01-30T11:59:56;27.10;;;12.95;;
73940;SDS011;62294;48.554;10.202;2024-01-30T12:02:23;22.52;;;11.23;;
73940;SDS011;62294;48.554;10.202;2024-01-30T12:04:49;21.55;;;12.52;;
73940;SDS011;62294;48.554;10.202;2024-01-30T12:07:16;21.83;;;11.63;;
73940;SDS011;62294;48.554;10.202;2024-01-30T12:09:51;22.00;;;12.25;;
73940;SDS011;62294;48.554;10.202;2024-01-30T12:12:19;24.92;;;12.52;;
73940;SDS011;62294;48.554;10.202;2024-01-30T12:14:45;26.80;;;12.63;;
73940;SDS011;62294;48.554;10.202;2024-01-30T12:17:22;22.45;;;11.15;;
73940;SDS011;62294;48.554;10.202;2024-01-30T12:20:05;23.45;;;11.90;;
73940;SDS011;62294;48.554;10.202;2024-01-30T12:22:46;25.10;;;13.18;;
73940;SDS011;62294;48.554;10.202;2024-01-30T12:25:15;20.77;;;11.90;;
73940;SDS011;62294;48.554;10.202;2024-01-30T12:27:46;22.77;;;11.88;;
73940;SDS011;62294;48.554;10.202;2024-01-30T12:30:18;21.65;;;11.95;;
73940;SDS011;62294;48.554;10.202;2024-01-30T12:32:47;22.63;;;11.48;;
73940;SDS011;62294;48.554;10.202;2024-01-30T12:35:17;25.13;;;12.38;;
73940;SDS011;62294;48.554;10.202;2024-01-30T12:37:46;21.63;;;11.60;;
73940;SDS011;62294;48.554;10.202;2024-01-30T12:40:14;24.40;;;12.40;;
73940;SDS011;62294;48.554;10.202;2024-01-30T12:42:42;20.70;;;11.32;;
73940;SDS011;62294;48.554;10.202;2024-01-30T12:45:15;20.02;;;12.20;;
73940;SDS011;62294;48.554;10.202;2024-01-30T12:47:42;19.73;;;10.93;;
73940;SDS011;62294;48.554;10.202;2024-01-30T12:50:09;23.15;;;13.40;;
73940;SDS011;62294;48.554;10.202;2024-01-30T12:52:36;17.85;;;10.05;;
73940;SDS011;62294;48.554;10.202;2024-01-30T12:55:03;23.88;;;12.57;;
73940;SDS011;62294;48.554;10.202;2024-01-30T12:57:30;21.23;;;12.40;;
73940;SDS011;62294;48.554;10.202;2024-01-30T12:59:56;25.17;;;13.32;;
73940;SDS011;62294;48.554;10.202;2024-01-30T13:02:23;23.75;;;12.23;;
73940;SDS011;62294;48.554;10.202;2024-01-30T13:04:50;25.55;;;14.00;;
73940;SDS011;62294;48.554;10.202;2024-01-30T13:07:17;27.33;;;13.55;;
73940;SDS011;62294;48.554;10.202;2024-01-30T13:09:44;23.13;;;13.18;;
73940;SDS011;62294;48.554;10.202;2024-01-30T13:12:10;28.20;;;14.48;;
73940;SDS011;62294;48.554;10.202;2024-01-30T13:14:37;27.23;;;13.75;;
73940;SDS011;62294;48.554;10.202;2024-01-30T13:17:03;30.52;;;14.10;;
73940;SDS011;62294;48.554;10.202;2024-01-30T13:19:30;27.27;;;13.63;;
73940;SDS011;62294;48.554;10.202;2024-01-30T13:21:57;35.97;;;16.92;;
73940;SDS011;62294;48.554;10.202;2024-01-30T13:24:24;27.20;;;14.02;;
73940;SDS011;62294;48.554;10.202;2024-01-30T13:26:51;32.35;;;14.95;;
73940;SDS011;62294;48.554;10.202;2024-01-30T13:29:18;26.67;;;13.40;;
73940;SDS011;62294;48.554;10.202;2024-01-30T13:31:45;37.45;;;18.23;;
73940;SDS011;62294;48.554;10.202;2024-01-30T13:34:13;45.15;;;18.73;;
73940;SDS011;62294;48.554;10.202;2024-01-30T13:36:42;38.35;;;17.42;;
73940;SDS011;62294;48.554;10.202;2024-01-30T13:39:09;28.95;;;15.75;;
73940;SDS011;62294;48.554;10.202;2024-01-30T13:41:37;27.52;;;15.60;;
73940;SDS011;62294;48.554;10.202;2024-01-30T13:44:04;29.13;;;16.05;;
73940;SDS011;62294;48.554;10.202;2024-01-30T13:46:30;27.02;;;14.43;;
73940;SDS011;62294;48.554;10.202;2024-01-30T13:48:58;26.48;;;15.00;;
73940;SDS011;62294;48.554;10.202;2024-01-30T13:51:24;26.25;;;12.75;;
73940;SDS011;62294;48.554;10.202;2024-01-30T13:53:51;21.17;;;13.15;;
73940;SDS011;62294;48.554;10.202;2024-01-30T13:56:18;23.20;;;12.23;;
73940;SDS011;62294;48.554;10.202;2024-01-30T13:58:48;29.17;;;13.90;;
73940;SDS011;62294;48.554;10.202;2024-01-30T14:01:16;30.08;;;15.00;;
73940;SDS011;62294;48.554;10.202;2024-01-30T14:03:43;24.48;;;12.20;;
73940;SDS011;62294;48.554;10.202;2024-01-30T14:06:11;27.95;;;14.38;;
73940;SDS011;62294;48.554;10.202;2024-01-30T14:08:38;23.33;;;12.82;;
73940;SDS011;62294;48.554;10.202;2024-01-30T14:11:04;22.42;;;12.32;;
73940;SDS011;62294;48.554;10.202;2024-01-30T14:13:31;21.65;;;11.30;;
73940;SDS011;62294;48.554;10.202;2024-01-30T14:15:59;23.60;;;10.93;;
73940;SDS011;62294;48.554;10.202;2024-01-30T14:18:26;24.83;;;11.35;;
73940;SDS011;62294;48.554;10.202;2024-01-30T14:20:52;23.45;;;12.73;;
73940;SDS011;62294;48.554;10.202;2024-01-30T14:23:20;25.63;;;13.23;;